Time;durP1;ratioP1;P1;durP2;ratioP2;P2;SDS_P1;SDS_P2;PMS_P1;PMS_P2;Temp;Humidity;BMP_temperature;BMP_pressure;BME280_temperature;BME280_humidity;BME280_pressure;Samples;Min_cycle;Max_cycle;Signal;HPM_P1;HPM_P2
2021/04/29 00:00:58;;;;;;;0.47;0.40;;;;;;;7.99;100.00;91789.59;2097084;28;20119;-84
2021/04/29 00:01:59;;;;;;;0.50;0.50;;;;;;;7.94;100.00;91793.56;2104662;28;20023;-85
2021/04/29 00:02:59;;;;;;;0.50;0.50;;;;;;;7.90;100.00;91784.97;2095071;28;20036;-84
2021/04/29 00:04:00;;;;;;;0.55;0.50;;;;;;;7.89;100.00;91785.38;2099154;28;20027;-85
2021/04/29 00:05:01;;;;;;;0.63;0.50;;;;;;;7.92;100.00;91785.28;2100831;28;20047;-85
2021/04/29 00:06:03;;;;;;;0.40;0.40;;;;;;;7.82;100.00;91783.72;2101083;28;20032;-85
2021/04/29 00:07:04;;;;;;;0.40;0.40;;;;;;;7.84;100.00;91778.69;2101212;28;20074;-85
2021/04/29 00:08:05;;;;;;;0.80;0.50;;;;;;;7.93;100.00;91784.09;2089803;28;20067;-85
2021/04/29 00:09:06;;;;;;;0.45;0.35;;;;;;;7.99;100.00;91782.38;2104403;28;20020;-85
2021/04/29 00:10:11;;;;;;;0.35;0.35;;;;;;;8.04;100.00;91781.09;2106628;28;20833;-85
2021/04/29 00:11:13;;;;;;;0.40;0.40;;;;;;;7.99;100.00;91790.38;2098085;28;20077;-85
2021/04/29 00:12:14;;;;;;;0.30;0.30;;;;;;;7.92;100.00;91782.63;2090397;28;20448;-86
2021/04/29 00:13:15;;;;;;;0.28;0.28;;;;;;;7.79;100.00;91787.22;2089953;28;20067;-84
2021/04/29 00:14:15;;;;;;;0.40;0.40;;;;;;;7.78;100.00;91783.09;2089334;28;20059;-85
2021/04/29 00:15:17;;;;;;;0.50;0.50;;;;;;;7.78;100.00;91785.75;2098179;28;20107;-85
2021/04/29 00:16:17;;;;;;;0.77;0.47;;;;;;;7.74;100.00;91787.78;2106438;28;20107;-85
2021/04/29 00:17:18;;;;;;;0.50;0.50;;;;;;;7.78;100.00;91799.78;2097968;28;20405;-84
2021/04/29 00:18:20;;;;;;;0.40;0.40;;;;;;;7.74;100.00;91787.78;2098936;28;20032;-84
2021/04/29 00:19:21;;;;;;;0.30;0.30;;;;;;;7.83;100.00;91795.84;2105174;28;20070;-85
2021/04/29 00:20:23;;;;;;;0.30;0.30;;;;;;;7.78;100.00;91794.47;2107723;28;20024;-85
2021/04/29 00:21:24;;;;;;;0.45;0.45;;;;;;;7.89;100.00;91802.09;2105209;28;20024;-85
2021/04/29 00:22:25;;;;;;;0.40;0.40;;;;;;;7.99;100.00;91803.69;2081427;28;20029;-85
2021/04/29 00:23:27;;;;;;;0.43;0.43;;;;;;;8.00;100.00;91805.16;2089740;28;20032;-85
2021/04/29 00:24:28;;;;;;;0.55;0.30;;;;;;;8.00;100.00;91809.75;2094465;28;20665;-85
2021/04/29 00:25:29;;;;;;;0.52;0.40;;;;;;;8.04;100.00;91811.09;2095712;28;20032;-86
2021/04/29 00:26:29;;;;;;;0.38;0.38;;;;;;;8.03;100.00;91806.19;2085554;28;20522;-86
2021/04/29 00:27:30;;;;;;;1.10;0.40;;;;;;;8.10;100.00;91807.88;2112311;28;20092;-86
2021/04/29 00:28:31;;;;;;;1.33;0.40;;;;;;;8.06;99.99;91808.00;2108869;28;20032;-86
2021/04/29 00:29:32;;;;;;;1.17;0.50;;;;;;;7.98;100.00;91804.09;2103696;28;20102;-85
2021/04/29 00:30:32;;;;;;;2.65;0.40;;;;;;;7.99;100.00;91805.56;2100723;28;20027;-85
2021/04/29 00:31:33;;;;;;;0.73;0.40;;;;;;;7.95;100.00;91812.94;2110647;28;20039;-86
2021/04/29 00:32:34;;;;;;;0.73;0.50;;;;;;;7.90;100.00;91805.50;2114652;28;20035;-86
2021/04/29 00:33:35;;;;;;;0.68;0.60;;;;;;;7.85;100.00;91806.03;2106413;28;20051;-86
2021/04/29 00:34:36;;;;;;;0.85;0.60;;;;;;;7.90;100.00;91808.16;2111419;28;20097;-85
2021/04/29 00:35:36;;;;;;;3.55;0.70;;;;;;;7.89;100.00;91809.34;2113409;28;20028;-86
2021/04/29 00:36:37;;;;;;;0.60;0.60;;;;;;;7.75;100.00;91800.66;2106107;28;20050;-86
2021/04/29 00:37:38;;;;;;;1.30;0.70;;;;;;;7.86;100.00;91810.94;2106212;28;20477;-86
2021/04/29 00:38:39;;;;;;;0.60;0.60;;;;;;;7.80;100.00;91816.06;2097478;28;20020;-86
2021/04/29 00:39:40;;;;;;;1.02;0.82;;;;;;;7.82;100.00;91816.38;2089553;28;20032;-86
2021/04/29 00:40:41;;;;;;;1.10;0.90;;;;;;;7.82;100.00;91815.63;2089554;28;20028;-85
2021/04/29 00:41:41;;;;;;;1.30;1.20;;;;;;;7.83;97.44;91812.53;2105851;28;20090;-86
2021/04/29 00:42:43;;;;;;;1.67;1.20;;;;;;;7.82;99.03;91818.31;2114745;28;20099;-85
2021/04/29 00:43:44;;;;;;;2.10;1.27;;;;;;;7.76;96.16;91812.03;2114517;28;20030;-86
2021/04/29 00:44:45;;;;;;;1.58;1.30;;;;;;;7.79;96.65;91821.81;2106050;28;20016;-86
2021/04/29 00:45:46;;;;;;;1.83;1.35;;;;;;;7.88;93.44;91818.50;2090420;28;20088;-85
2021/04/29 00:46:46;;;;;;;3.42;1.55;;;;;;;7.68;95.95;91811.53;2093814;28;20533;-85
2021/04/29 00:47:51;;;;;;;1.88;1.58;;;;;;;7.72;97.94;91828.09;2097826;28;20032;-84
2021/04/29 00:48:52;;;;;;;5.35;1.48;;;;;;;7.71;97.71;91812.56;2111767;28;20020;-83
2021/04/29 00:49:52;;;;;;;2.22;1.58;;;;;;;7.64;97.49;91812.78;2106142;28;20363;-84
2021/04/29 00:50:53;;;;;;;1.95;1.45;;;;;;;7.57;97.67;91825.16;2097302;28;20062;-86
2021/04/29 00:51:54;;;;;;;3.28;1.60;;;;;;;7.55;96.64;91821.41;2092031;28;20032;-84
2021/04/29 00:52:54;;;;;;;2.08;1.65;;;;;;;7.64;96.71;91824.19;2096065;28;20047;-86
2021/04/29 00:53:55;;;;;;;4.53;1.98;;;;;;;7.52;98.04;91815.06;2089413;28;20025;-86
2021/04/29 00:54:56;;;;;;;3.25;1.73;;;;;;;7.52;97.95;91823.03;2095315;28;20024;-84
2021/04/29 00:55:57;;;;;;;3.83;1.83;;;;;;;7.42;98.23;91816.13;2093520;28;20017;-84
2021/04/29 00:56:57;;;;;;;2.90;2.10;;;;;;;7.49;97.58;91815.16;2099906;28;20424;-85
2021/04/29 00:57:58;;;;;;;4.80;2.00;;;;;;;7.35;98.76;91824.31;2101863;28;20028;-84
2021/04/29 00:58:59;;;;;;;4.10;1.70;;;;;;;7.46;95.30;91823.97;2099535;28;20032;-86
2021/04/29 01:00:01;;;;;;;3.40;1.80;;;;;;;7.44;94.20;91826.34;2102432;28;20053;-85
2021/04/29 01:01:04;;;;;;;3.42;1.60;;;;;;;7.30;96.82;91825.59;2099307;28;20035;-85
2021/04/29 01:02:06;;;;;;;2.97;1.95;;;;;;;7.29;97.79;91832.09;2113510;27;20201;-85
2021/04/29 01:03:16;;;;;;;4.43;1.90;;;;;;;7.32;98.65;91825.16;2098243;28;20028;-86
2021/04/29 01:04:33;;;;;;;2.35;1.77;;;;;;;7.26;97.21;91824.97;2084681;28;20095;-86
2021/04/29 01:05:38;;;;;;;3.55;2.60;;;;;;;7.33;97.11;91826.66;2099169;28;20036;-86
2021/04/29 01:06:45;;;;;;;3.83;1.98;;;;;;;7.21;99.23;91830.06;2102362;27;20024;-85
2021/04/29 01:07:51;;;;;;;4.15;1.95;;;;;;;7.25;96.66;91834.09;2110816;28;20024;-87
2021/04/29 01:08:58;;;;;;;3.30;1.80;;;;;;;7.21;97.86;91828.16;2110736;28;20031;-87
2021/04/29 01:10:17;;;;;;;2.50;2.05;;;;;;;7.30;98.15;91832.84;2113311;27;20110;-85
2021/04/29 01:11:24;;;;;;;3.53;1.75;;;;;;;7.32;98.01;91830.47;2093261;28;20024;-86
2021/04/29 01:12:43;;;;;;;2.25;1.90;;;;;;;7.42;95.49;91826.00;2093303;28;20039;-85
2021/04/29 01:13:49;;;;;;;2.63;1.85;;;;;;;7.35;97.95;91826.97;2098337;28;20440;-87
2021/04/29 01:14:52;;;;;;;3.03;1.98;;;;;;;7.30;98.71;91830.19;2094151;28;20386;-86
2021/04/29 01:15:54;;;;;;;2.38;2.05;;;;;;;7.20;98.89;91824.03;2102082;28;20025;-87
2021/04/29 01:16:57;;;;;;;4.18;2.35;;;;;;;7.09;99.36;91834.22;2100210;28;20045;-86
2021/04/29 01:17:58;;;;;;;4.88;2.33;;;;;;;7.02;99.66;91831.75;2089651;28;20474;-87
2021/04/29 01:19:01;;;;;;;2.42;1.60;;;;;;;7.06;99.85;91829.72;2104130;28;20020;-87
2021/04/29 01:20:01;;;;;;;5.00;2.28;;;;;;;7.04;98.69;91814.22;2091013;28;20032;-86
2021/04/29 01:21:11;;;;;;;5.53;2.63;;;;;;;7.06;99.99;91819.84;2097514;28;20466;-86
2021/04/29 01:22:14;;;;;;;2.47;2.15;;;;;;;7.04;100.00;91816.88;2099074;28;20473;-85
2021/04/29 01:23:36;;;;;;;2.53;2.10;;;;;;;7.06;99.88;91819.84;2090148;28;20036;-85
2021/04/29 01:24:46;;;;;;;3.38;1.85;;;;;;;7.19;99.62;91822.50;2097341;28;20020;-85
2021/04/29 01:25:49;;;;;;;;;;;;;;;7.07;100.00;91828.59;2105442;27;20073;-87
2021/04/29 01:27:01;;;;;;;3.13;1.60;;;;;;;7.00;99.72;91832.19;2100732;28;20007;-87
2021/04/29 01:28:02;;;;;;;2.55;1.95;;;;;;;6.93;100.00;91835.03;2099270;28;20054;-84
2021/04/29 01:29:08;;;;;;;3.45;1.77;;;;;;;6.93;100.00;91826.31;2090880;28;20066;-86
2021/04/29 01:30:11;;;;;;;3.90;2.13;;;;;;;7.01;100.00;91836.31;2101190;28;20024;-87
2021/04/29 01:31:12;;;;;;;2.35;1.77;;;;;;;6.94;99.89;91833.16;2097732;28;20105;-86
2021/04/29 01:32:13;;;;;;;2.42;1.90;;;;;;;6.92;99.93;91830.16;2110123;28;20100;-84
2021/04/29 01:33:14;;;;;;;4.20;1.85;;;;;;;6.92;100.00;91832.81;2097610;28;20074;-83
2021/04/29 01:34:17;;;;;;;4.35;2.20;;;;;;;7.04;100.00;91838.13;2081076;28;20025;-85
2021/04/29 01:35:18;;;;;;;2.45;1.67;;;;;;;7.11;98.86;91839.81;2093597;28;20392;-85
2021/04/29 01:36:21;;;;;;;2.45;1.60;;;;;;;7.10;97.69;91832.28;2091041;28;20025;-84
2021/04/29 01:37:22;;;;;;;3.92;1.60;;;;;;;7.02;99.46;91835.16;2096424;28;20039;-86
2021/04/29 01:38:23;;;;;;;3.95;2.08;;;;;;;6.99;99.35;91830.69;2083599;28;20048;-85
2021/04/29 01:39:26;;;;;;;3.72;1.98;;;;;;;7.07;98.55;91842.59;2092989;28;20531;-83
2021/04/29 01:40:27;;;;;;;1.98;1.55;;;;;;;6.96;99.45;91842.16;2104208;28;20160;-84
2021/04/29 01:41:27;;;;;;;2.75;1.83;;;;;;;7.02;99.54;91851.13;2099550;28;20024;-83
2021/04/29 01:42:29;;;;;;;1.77;1.67;;;;;;;6.94;99.82;91849.09;2103567;28;20094;-84
2021/04/29 01:43:31;;;;;;;2.17;1.58;;;;;;;7.02;98.71;91853.78;2101442;28;20050;-83
2021/04/29 01:44:32;;;;;;;3.78;1.60;;;;;;;6.98;98.92;91855.78;2091729;28;20029;-84
2021/04/29 01:45:34;;;;;;;3.92;1.60;;;;;;;7.11;98.40;91855.03;2103127;28;20024;-84
2021/04/29 01:46:35;;;;;;;1.90;1.48;;;;;;;7.01;99.88;91852.25;2095254;28;20022;-84
2021/04/29 01:47:37;;;;;;;5.43;1.75;;;;;;;7.04;100.00;91864.69;2096738;28;20059;-84
2021/04/29 01:48:38;;;;;;;2.33;1.48;;;;;;;7.19;98.35;91858.97;2087507;28;20020;-83
2021/04/29 01:49:39;;;;;;;3.03;1.45;;;;;;;7.22;97.42;91861.53;2093314;28;20048;-85
2021/04/29 01:50:40;;;;;;;3.58;1.40;;;;;;;7.23;98.82;91873.63;2110170;28;20383;-84
2021/04/29 01:51:41;;;;;;;1.80;1.20;;;;;;;7.22;99.17;91864.19;2113962;27;20321;-85
2021/04/29 01:52:43;;;;;;;3.88;1.70;;;;;;;7.25;98.02;91871.31;2096998;28;20582;-85
2021/04/29 01:53:44;;;;;;;2.50;1.42;;;;;;;7.21;99.16;91872.59;2103808;28;20807;-88
2021/04/29 01:54:45;;;;;;;2.22;1.20;;;;;;;7.22;99.73;91871.41;2081019;28;20032;-85
2021/04/29 01:55:46;;;;;;;3.17;1.30;;;;;;;7.18;99.10;91874.19;2081330;28;20037;-85
2021/04/29 01:56:47;;;;;;;2.45;1.40;;;;;;;7.24;98.67;91863.75;2097367;28;20017;-85
2021/04/29 01:57:48;;;;;;;1.95;1.20;;;;;;;7.25;98.53;91858.03;2102366;28;20023;-84
2021/04/29 01:58:49;;;;;;;1.65;1.35;;;;;;;7.23;98.74;91867.59;2088894;28;20021;-86
2021/04/29 01:59:49;;;;;;;1.75;1.30;;;;;;;7.14;99.24;91870.13;2089115;28;20695;-87
2021/04/29 02:00:50;;;;;;;1.42;1.17;;;;;;;7.22;99.22;91861.53;2092411;28;20072;-84
2021/04/29 02:01:51;;;;;;;2.58;1.38;;;;;;;7.26;98.35;91864.09;2100299;28;20024;-85
2021/04/29 02:02:52;;;;;;;1.50;1.40;;;;;;;7.25;97.79;91867.91;2105072;28;20492;-84
2021/04/29 02:03:54;;;;;;;1.35;1.20;;;;;;;7.26;96.48;91864.09;2096361;28;20385;-86
2021/04/29 02:04:55;;;;;;;1.95;1.40;;;;;;;7.26;96.92;91864.09;2101762;28;20078;-87
2021/04/29 02:05:55;;;;;;;1.58;1.45;;;;;;;7.25;97.52;91883.88;2097419;28;20032;-85
2021/04/29 02:06:56;;;;;;;1.70;1.17;;;;;;;7.20;96.42;91876.41;2100543;28;20020;-87
2021/04/29 02:07:57;;;;;;;1.40;1.27;;;;;;;7.24;96.90;91874.38;2091330;28;20032;-84
2021/04/29 02:08:58;;;;;;;2.17;1.13;;;;;;;7.21;96.49;91883.22;2101389;28;20027;-85
2021/04/29 02:09:59;;;;;;;1.45;1.35;;;;;;;7.24;96.16;91880.47;2103639;28;20027;-86
2021/04/29 02:11:01;;;;;;;1.58;1.48;;;;;;;7.17;95.79;91893.22;2097357;28;20017;-85
2021/04/29 02:12:03;;;;;;;2.88;1.40;;;;;;;7.15;96.71;91898.19;2101372;28;20116;-86
2021/04/29 02:13:09;;;;;;;1.45;1.35;;;;;;;7.20;94.66;91901.09;2098794;28;20351;-85
2021/04/29 02:14:11;;;;;;;2.88;1.50;;;;;;;7.20;94.62;91897.66;2113184;27;20027;-86
2021/04/29 02:15:12;;;;;;;1.60;1.50;;;;;;;7.23;95.15;91891.50;2105413;28;20024;-84
2021/04/29 02:16:17;;;;;;;2.67;1.40;;;;;;;7.23;92.48;91902.88;2105682;28;20019;-83
2021/04/29 02:17:55;;;;;;;2.72;1.70;;;;;;;7.16;93.14;91891.72;2106042;28;20062;-86
2021/04/29 02:18:58;;;;;;;1.77;1.63;;;;;;;7.13;93.41;91897.88;2094693;27;20043;-85
2021/04/29 02:20:02;;;;;;;1.90;1.70;;;;;;;7.08;95.14;91899.16;2099523;28;20028;-85
2021/04/29 02:21:03;;;;;;;1.73;1.60;;;;;;;7.10;94.30;91894.13;2104406;28;20543;-85
2021/04/29 02:22:04;;;;;;;1.80;1.58;;;;;;;7.15;91.86;91887.56;2091671;28;20644;-86
2021/04/29 02:23:10;;;;;;;2.42;1.65;;;;;;;7.07;91.09;91893.09;2097297;28;20086;-86
2021/04/29 02:24:13;;;;;;;2.63;1.88;;;;;;;7.01;91.76;91891.38;2094202;28;20031;-84
2021/04/29 02:25:15;;;;;;;4.13;2.00;;;;;;;6.95;91.22;91891.16;2097533;28;20113;-85
2021/04/29 02:26:19;;;;;;;2.30;2.08;;;;;;;6.98;92.79;91892.97;2093118;28;20017;-83
2021/04/29 02:27:21;;;;;;;4.10;2.13;;;;;;;7.02;91.39;91895.50;2098311;28;20032;-84
2021/04/29 02:28:22;;;;;;;2.95;2.00;;;;;;;6.93;91.56;91893.47;2104475;28;20804;-84
2021/04/29 02:29:23;;;;;;;3.20;2.10;;;;;;;6.94;91.66;91892.31;2098590;28;20079;-85
2021/04/29 02:30:25;;;;;;;2.63;2.42;;;;;;;6.87;93.07;91897.09;2104227;28;20403;-85
2021/04/29 02:31:26;;;;;;;4.13;2.20;;;;;;;6.90;92.59;91901.56;2109559;28;20035;-84
2021/04/29 02:32:28;;;;;;;2.83;2.13;;;;;;;6.84;92.90;91901.31;2098902;28;20028;-85
2021/04/29 02:33:30;;;;;;;3.58;2.15;;;;;;;6.93;92.06;91896.13;2095527;28;20029;-84
2021/04/29 02:34:30;;;;;;;4.97;2.20;;;;;;;6.89;92.22;91903.47;2099607;28;20059;-85
2021/04/29 02:35:31;;;;;;;5.47;2.50;;;;;;;6.94;92.34;91904.88;2111488;28;20112;-86
2021/04/29 02:36:34;;;;;;;2.83;2.13;;;;;;;6.89;92.25;91910.69;2109740;28;20515;-85
2021/04/29 02:37:37;;;;;;;3.33;2.17;;;;;;;6.89;92.73;91906.13;2108337;28;20139;-83
2021/04/29 02:38:39;;;;;;;3.50;2.33;;;;;;;6.90;92.97;91910.28;2102462;28;20024;-85
2021/04/29 02:39:40;;;;;;;2.40;1.83;;;;;;;7.00;89.64;91911.13;2096893;28;20021;-85
2021/04/29 02:40:41;;;;;;;2.40;2.08;;;;;;;6.94;90.84;91910.91;2101810;28;20032;-84
2021/04/29 02:41:42;;;;;;;2.53;2.05;;;;;;;6.94;89.90;91905.59;2092636;28;20060;-85
2021/04/29 02:42:44;;;;;;;4.93;2.30;;;;;;;6.98;91.30;91910.81;2093182;28;20024;-85
2021/04/29 02:43:45;;;;;;;2.72;2.35;;;;;;;6.92;93.43;91910.59;2097207;28;20020;-84
2021/04/29 02:44:46;;;;;;;4.22;2.10;;;;;;;7.00;88.48;91905.81;2101811;28;20073;-86
2021/04/29 02:45:47;;;;;;;3.88;2.53;;;;;;;6.90;90.92;91904.97;2109283;28;20015;-84
2021/04/29 02:46:50;;;;;;;2.72;1.95;;;;;;;6.87;93.02;91902.41;2097091;28;20472;-85
2021/04/29 02:47:52;;;;;;;5.28;2.40;;;;;;;6.79;92.09;91910.53;2097496;28;20028;-83
2021/04/29 02:48:53;;;;;;;2.53;2.20;;;;;;;6.80;91.58;91901.44;2089019;28;20068;-84
2021/04/29 02:49:53;;;;;;;4.45;2.45;;;;;;;6.77;90.45;91896.97;2088735;28;20017;-85
2021/04/29 02:50:54;;;;;;;3.67;2.40;;;;;;;6.79;91.87;91901.84;2088247;28;20036;-85
2021/04/29 02:51:55;;;;;;;2.45;2.25;;;;;;;6.74;93.02;91916.38;2090234;28;20021;-84
2021/04/29 02:52:58;;;;;;;2.40;2.20;;;;;;;6.65;94.08;91920.81;2101174;28;20154;-85
2021/04/29 02:53:59;;;;;;;4.05;2.47;;;;;;;6.63;94.94;91921.25;2104092;28;20093;-84
2021/04/29 02:55:00;;;;;;;5.95;2.30;;;;;;;6.63;95.34;91925.78;2098343;28;20465;-84
2021/04/29 02:56:01;;;;;;;2.55;2.35;;;;;;;6.67;93.29;91924.56;2100118;28;20032;-85
2021/04/29 02:57:01;;;;;;;4.70;2.90;;;;;;;6.68;94.23;91918.06;2108806;28;20047;-86
2021/04/29 02:58:07;;;;;;;2.95;2.40;;;;;;;6.65;92.03;91916.25;2098234;28;20025;-86
2021/04/29 02:59:10;;;;;;;2.63;2.40;;;;;;;6.66;91.65;91912.41;2094801;28;20562;-84
2021/04/29 03:00:15;;;;;;;3.33;2.40;;;;;;;6.63;92.30;91912.50;2098863;28;20386;-85
2021/04/29 03:01:16;;;;;;;4.25;2.30;;;;;;;6.68;92.65;91912.00;2094552;28;20032;-84
2021/04/29 03:02:17;;;;;;;3.33;2.58;;;;;;;6.81;92.55;91918.09;2093646;28;20025;-84
2021/04/29 03:03:18;;;;;;;5.05;2.75;;;;;;;6.72;91.46;91921.38;2101270;28;20032;-83
2021/04/29 03:04:18;;;;;;;2.85;2.55;;;;;;;6.80;91.36;91920.03;2099433;28;20032;-85
2021/04/29 03:05:19;;;;;;;4.68;2.50;;;;;;;6.78;91.10;91913.63;2105633;28;20528;-86
2021/04/29 03:06:21;;;;;;;4.57;2.40;;;;;;;6.84;89.95;91919.16;2106737;28;20035;-87
2021/04/29 03:07:22;;;;;;;3.22;2.78;;;;;;;6.72;91.93;91912.66;2106785;28;20035;-84
2021/04/29 03:08:22;;;;;;;2.50;2.30;;;;;;;6.79;89.76;91915.84;2107017;28;20103;-85
2021/04/29 03:09:23;;;;;;;3.80;2.70;;;;;;;6.84;90.25;91916.50;2106819;28;20509;-86
2021/04/29 03:10:24;;;;;;;4.07;3.25;;;;;;;6.77;89.36;91909.50;2107053;28;20097;-84
2021/04/29 03:11:24;;;;;;;3.70;3.35;;;;;;;6.70;90.68;91905.09;2107102;28;20452;-86
2021/04/29 03:12:26;;;;;;;3.58;3.10;;;;;;;6.80;89.34;91903.31;2115343;28;20031;-84
2021/04/29 03:13:27;;;;;;;6.75;2.88;;;;;;;6.74;90.63;91907.66;2098624;28;20776;-86
2021/04/29 03:14:27;;;;;;;3.92;2.72;;;;;;;6.75;88.25;91903.84;2104912;28;20019;-85
2021/04/29 03:15:28;;;;;;;3.60;2.92;;;;;;;6.71;87.71;91913.81;2116949;27;20023;-85
2021/04/29 03:16:29;;;;;;;3.05;2.85;;;;;;;6.74;87.74;91923.59;2121851;27;20149;-84
2021/04/29 03:17:30;;;;;;;5.05;3.20;;;;;;;6.73;90.81;91916.81;2098495;28;20038;-85
2021/04/29 03:18:31;;;;;;;3.53;2.90;;;;;;;6.72;89.58;91920.63;2098701;28;20056;-83
2021/04/29 03:19:31;;;;;;;4.45;3.15;;;;;;;6.70;88.10;91910.41;2090040;28;20032;-83
2021/04/29 03:20:32;;;;;;;5.22;3.50;;;;;;;6.78;89.12;91916.28;2098563;28;20028;-86
2021/04/29 03:21:33;;;;;;;3.40;2.92;;;;;;;6.67;90.55;91923.78;2098489;28;20024;-85
2021/04/29 03:22:33;;;;;;;5.28;3.00;;;;;;;6.70;90.35;91930.91;2090118;28;20029;-86
2021/04/29 03:23:34;;;;;;;4.13;2.95;;;;;;;6.68;89.60;91927.94;2082167;28;20075;-87
2021/04/29 03:24:35;;;;;;;4.70;3.22;;;;;;;6.73;91.39;91938.78;2081818;28;20808;-85
2021/04/29 03:25:36;;;;;;;4.18;3.47;;;;;;;6.78;90.42;91935.63;2087665;28;20056;-84
2021/04/29 03:26:36;;;;;;;4.05;3.08;;;;;;;6.66;92.07;91940.88;2095356;28;20029;-85
2021/04/29 03:27:37;;;;;;;3.45;2.97;;;;;;;6.75;87.92;91944.41;2095624;28;20028;-86
2021/04/29 03:28:38;;;;;;;6.78;3.22;;;;;;;6.62;90.76;91938.31;2103188;28;20060;-83
2021/04/29 03:29:39;;;;;;;4.28;2.70;;;;;;;6.57;92.64;91944.88;2092549;28;20058;-84
2021/04/29 03:30:39;;;;;;;5.25;3.00;;;;;;;6.64;92.62;91940.56;2110339;28;20028;-84
2021/04/29 03:31:40;;;;;;;3.70;2.90;;;;;;;6.60;92.34;91940.66;2101521;28;20753;-84
2021/04/29 03:32:41;;;;;;;3.25;2.95;;;;;;;6.74;89.34;91944.84;2109584;28;20028;-84
2021/04/29 03:33:42;;;;;;;3.42;2.85;;;;;;;6.89;87.28;91945.97;2101932;28;20023;-84
2021/04/29 03:34:42;;;;;;;4.30;3.38;;;;;;;6.77;87.90;91947.41;2094413;28;20699;-85
2021/04/29 03:35:43;;;;;;;3.75;3.30;;;;;;;6.73;89.35;91940.72;2097958;28;20075;-85
2021/04/29 03:36:43;;;;;;;4.88;3.42;;;;;;;6.64;91.76;91933.34;2101976;28;20404;-84
2021/04/29 03:37:44;;;;;;;5.38;3.03;;;;;;;6.59;91.88;91930.47;2091730;28;20021;-85
2021/04/29 03:38:45;;;;;;;4.95;3.33;;;;;;;6.59;92.56;91938.44;2098325;28;20056;-84
2021/04/29 03:39:46;;;;;;;3.33;3.00;;;;;;;6.56;92.69;91940.00;2102175;28;20021;-85
2021/04/29 03:40:46;;;;;;;4.53;3.10;;;;;;;6.64;92.63;91940.56;2098202;28;20554;-85
2021/04/29 03:41:47;;;;;;;5.72;3.47;;;;;;;6.78;89.15;91942.84;2111304;28;20076;-84
2021/04/29 03:42:48;;;;;;;3.85;3.08;;;;;;;6.67;89.85;91940.47;2110376;28;20020;-83
2021/04/29 03:43:48;;;;;;;3.58;2.97;;;;;;;6.66;91.09;91946.19;2090856;28;20032;-84
2021/04/29 03:44:49;;;;;;;4.18;3.05;;;;;;;6.64;89.41;91936.00;2093637;28;20029;-85
2021/04/29 03:45:50;;;;;;;4.38;3.50;;;;;;;6.63;89.89;91933.75;2081674;28;20028;-84
2021/04/29 03:46:51;;;;;;;3.97;3.10;;;;;;;6.63;89.81;91944.38;2094591;28;20032;-84
2021/04/29 03:47:51;;;;;;;4.88;3.53;;;;;;;6.56;89.31;91942.66;2100001;28;20032;-85
2021/04/29 03:48:52;;;;;;;3.53;3.20;;;;;;;6.69;89.00;91940.78;2101168;28;20773;-83
2021/04/29 03:49:53;;;;;;;6.50;3.70;;;;;;;6.60;90.87;91947.88;2095127;28;20029;-84
2021/04/29 03:50:53;;;;;;;5.30;3.20;;;;;;;6.63;90.70;91939.81;2098238;28;20445;-85
2021/04/29 03:51:54;;;;;;;7.22;3.40;;;;;;;6.55;91.31;91935.88;2097768;28;20021;-85
2021/04/29 03:52:55;;;;;;;8.38;3.15;;;;;;;6.52;91.35;91937.44;2098461;28;20073;-83
2021/04/29 03:53:58;;;;;;;4.63;3.08;;;;;;;6.59;88.25;91935.78;2092085;28;20051;-85
2021/04/29 03:54:58;;;;;;;4.10;3.63;;;;;;;6.58;87.99;91937.66;2110474;27;20020;-82
2021/04/29 03:55:59;;;;;;;4.95;3.78;;;;;;;6.69;87.11;91934.75;2106318;28;20061;-84
2021/04/29 03:57:00;;;;;;;4.30;3.28;;;;;;;6.68;86.46;91938.56;2098061;28;20027;-84
2021/04/29 03:58:00;;;;;;;5.47;3.70;;;;;;;6.67;86.58;91945.03;2097906;28;20032;-84
2021/04/29 03:59:01;;;;;;;4.97;3.50;;;;;;;6.60;87.53;91950.53;2099181;28;20032;-85
2021/04/29 04:00:06;;;;;;;4.75;3.75;;;;;;;6.55;89.91;91947.22;2105115;28;20048;-84
2021/04/29 04:01:07;;;;;;;4.88;4.40;;;;;;;6.43;90.08;91950.56;2109650;28;20051;-84
2021/04/29 04:02:07;;;;;;;6.95;3.60;;;;;;;6.41;91.87;91950.25;2108461;28;20428;-85
2021/04/29 04:03:08;;;;;;;5.00;3.97;;;;;;;6.40;91.45;91946.06;2096674;28;20052;-85
2021/04/29 04:04:09;;;;;;;4.65;3.85;;;;;;;6.47;91.13;91953.13;2104089;28;20024;-85
2021/04/29 04:05:10;;;;;;;4.10;3.55;;;;;;;6.58;89.17;91961.56;2098855;28;20128;-85
2021/04/29 04:06:12;;;;;;;7.47;4.63;;;;;;;6.52;91.08;91950.69;2114173;28;20435;-84
2021/04/29 04:07:12;;;;;;;4.45;3.50;;;;;;;6.61;90.02;91959.97;2098461;28;20410;-83
2021/04/29 04:08:13;;;;;;;6.20;4.13;;;;;;;6.52;91.10;91963.22;2105726;28;20058;-83
2021/04/29 04:09:14;;;;;;;4.40;3.83;;;;;;;6.48;90.12;91959.91;2097905;28;20046;-83
2021/04/29 04:10:14;;;;;;;5.53;3.88;;;;;;;6.40;89.35;91950.63;2089885;28;20029;-82
2021/04/29 04:11:15;;;;;;;5.88;4.20;;;;;;;6.35;91.11;91946.59;2101522;28;20039;-83
2021/04/29 04:12:16;;;;;;;6.18;4.00;;;;;;;6.37;91.69;91956.81;2081592;28;20037;-83
2021/04/29 04:13:19;;;;;;;4.70;3.85;;;;;;;6.41;91.47;91958.22;2097884;28;20024;-83
2021/04/29 04:14:19;;;;;;;5.80;4.30;;;;;;;6.44;91.94;91961.91;2082957;28;20036;-83
2021/04/29 04:15:20;;;;;;;4.32;3.92;;;;;;;6.59;88.21;91952.44;2096916;28;20087;-83
2021/04/29 04:16:21;;;;;;;6.18;4.07;;;;;;;6.58;89.41;91961.56;2090670;28;20029;-83
2021/04/29 04:17:22;;;;;;;5.55;4.50;;;;;;;6.49;90.24;91962.16;2098945;28;20024;-83
2021/04/29 04:18:23;;;;;;;4.72;4.20;;;;;;;6.53;90.20;91962.06;2093847;28;20025;-83
2021/04/29 04:19:23;;;;;;;7.88;5.00;;;;;;;6.44;89.78;91959.25;2097874;28;20103;-83
2021/04/29 04:20:24;;;;;;;6.15;4.88;;;;;;;6.48;89.39;91959.91;2099074;28;20020;-83
2021/04/29 04:21:26;;;;;;;7.50;4.50;;;;;;;6.48;88.38;91965.97;2106186;28;20024;-83
2021/04/29 04:22:26;;;;;;;6.10;4.50;;;;;;;6.46;90.01;91967.56;2104879;28;20091;-83
2021/04/29 04:23:27;;;;;;;6.00;4.82;;;;;;;6.39;89.78;91965.81;2091114;28;20025;-83
2021/04/29 04:24:28;;;;;;;8.00;4.50;;;;;;;6.51;88.88;91969.72;2090084;28;20478;-82
2021/04/29 04:25:28;;;;;;;5.22;4.72;;;;;;;6.48;90.11;91970.53;2098025;28;20028;-83
2021/04/29 04:26:29;;;;;;;8.10;4.72;;;;;;;6.44;90.80;91964.56;2104339;28;20023;-84
2021/04/29 04:27:30;;;;;;;5.40;4.82;;;;;;;6.54;88.58;91971.50;2099232;28;20070;-83
2021/04/29 04:28:31;;;;;;;5.78;4.65;;;;;;;6.57;88.69;91971.44;2095902;28;20047;-83
2021/04/29 04:29:32;;;;;;;6.38;4.60;;;;;;;6.51;90.90;91973.13;2099894;28;20031;-83
2021/04/29 04:30:33;;;;;;;7.38;4.88;;;;;;;6.47;90.18;91972.44;2091265;28;20029;-83
2021/04/29 04:31:34;;;;;;;8.15;4.80;;;;;;;6.46;90.23;91963.00;2103058;28;20021;-83
2021/04/29 04:32:34;;;;;;;8.13;5.10;;;;;;;6.38;90.95;91974.94;2112089;28;20152;-83
2021/04/29 04:33:35;;;;;;;7.22;5.20;;;;;;;6.37;91.09;91978.78;2110458;28;20058;-83
2021/04/29 04:34:36;;;;;;;5.20;4.65;;;;;;;6.46;91.37;91975.53;2117613;27;20897;-84
2021/04/29 04:35:36;;;;;;;10.93;5.68;;;;;;;6.41;91.61;91979.44;2117552;27;20031;-85
2021/04/29 04:36:37;;;;;;;11.32;6.93;;;;;;;6.44;91.48;91969.88;2103171;28;20047;-83
2021/04/29 04:37:38;;;;;;;6.68;5.95;;;;;;;6.41;91.56;91968.06;2104093;28;20051;-83
2021/04/29 04:38:39;;;;;;;9.30;5.95;;;;;;;6.42;91.64;91965.00;2101798;28;20028;-83
2021/04/29 04:39:39;;;;;;;7.18;6.30;;;;;;;6.44;90.43;91969.88;2094165;28;20025;-84
2021/04/29 04:40:40;;;;;;;8.45;6.00;;;;;;;6.46;90.32;91970.97;2101293;28;20115;-83
2021/04/29 04:41:41;;;;;;;8.13;5.90;;;;;;;6.53;90.62;91976.06;2102496;28;20089;-84
2021/04/29 04:42:42;;;;;;;10.80;6.50;;;;;;;6.55;89.75;91973.78;2096871;28;20016;-84
2021/04/29 04:43:42;;;;;;;8.23;6.07;;;;;;;6.55;90.34;91975.69;2102217;28;20028;-84
2021/04/29 04:44:43;;;;;;;10.23;6.72;;;;;;;6.51;90.67;91972.38;2106177;28;20020;-83
2021/04/29 04:45:44;;;;;;;9.55;6.57;;;;;;;6.57;90.29;91982.06;2106216;28;20028;-82
2021/04/29 04:46:44;;;;;;;8.98;5.82;;;;;;;6.66;89.06;91970.09;2094088;28;20032;-83
2021/04/29 04:47:46;;;;;;;9.18;6.68;;;;;;;6.62;89.03;91974.75;2097667;28;20020;-84
2021/04/29 04:48:46;;;;;;;10.75;6.72;;;;;;;6.73;89.71;91969.91;2096414;28;20020;-83
2021/04/29 04:49:47;;;;;;;8.60;7.65;;;;;;;6.72;90.21;91973.75;2090716;28;20116;-84
2021/04/29 04:50:48;;;;;;;9.50;6.68;;;;;;;6.69;89.12;91971.91;2095274;28;20027;-84
2021/04/29 04:51:48;;;;;;;8.63;7.10;;;;;;;6.64;91.01;91978.47;2106716;28;20032;-84
2021/04/29 04:52:49;;;;;;;9.13;6.95;;;;;;;6.68;90.49;91997.72;2113756;28;20023;-84
2021/04/29 04:53:50;;;;;;;9.50;7.35;;;;;;;6.62;90.89;91994.06;2106821;28;20020;-83
2021/04/29 04:54:51;;;;;;;9.82;7.22;;;;;;;6.57;91.50;91997.22;2106111;28;20060;-83